PWSweather.com
Personal Weather Stations
Station Observations
SHAHALMS1
Eftra, Falkenberg, HA

EftraFalkenberg, HA

Lat: 56.85, Lon: 12.65

Elevation: 140

Station Type:

http://hem.passagen.se/risarp101

High Low Average
Temperature 68.0°F20.0°C 57.2°F14.0°C 61.4°F16.3°C
Dew Point 56.2°F13.4°C 48.0°F8.9°C 52.1°F11.2°C
Winds 10.0 mph 16.1 kmh Calm Calm 6.0 mph W9.7 kmh W
Wind Gusts 27.9 mph44.9 kmh -- 16.0 mph25.7 kmh
Humidity 84% 59% 72%
Pressure 30.01 in1016.3 mb 29.71 in1006.1 mb -
Precipitation 0.00 in0.0 mm - -
Hour Temp Dew Point Humidity Winds Wind Gusts Pressure Precip Precip Rate Daily Precip Total
12:00 AM 57.4°F14.1°C 52.6°F11.4°C 84% 4.7 mph W7.6 kmh W 11.5 mph18.5 kmh 29.74 in1007.1 mb 0.00 in0.0 mm 0.00 in0.0 mm 0.00 in0.0 mm
12:15 AM 57.4°F14.1°C 52.6°F11.4°C 84% 4.9 mph WNW7.9 kmh WNW 10.0 mph16.1 kmh 29.74 in1007.1 mb 0.00 in0.0 mm 0.00 in0.0 mm 0.00 in0.0 mm
12:30 AM 57.7°F14.3°C 52.9°F11.6°C 84% 4.4 mph W7.1 kmh W 10.7 mph17.2 kmh 29.74 in1007.1 mb 0.00 in0.0 mm 0.00 in0.0 mm 0.00 in0.0 mm
12:45 AM 57.7°F14.3°C 52.9°F11.6°C 84% 5.0 mph W8.0 kmh W 10.4 mph16.7 kmh 29.74 in1007.1 mb 0.00 in0.0 mm 0.00 in0.0 mm 0.00 in0.0 mm
01:00 AM 57.7°F14.3°C 52.9°F11.6°C 84% 4.9 mph W7.9 kmh W 19.3 mph31.1 kmh 29.74 in1007.1 mb 0.00 in0.0 mm 0.00 in0.0 mm 0.00 in0.0 mm
01:15 AM 57.7°F14.3°C 52.9°F11.6°C 84% 5.1 mph W8.2 kmh W 13.6 mph21.9 kmh 29.74 in1007.1 mb 0.00 in0.0 mm 0.00 in0.0 mm 0.00 in0.0 mm
01:30 AM 57.9°F14.4°C 53.1°F11.7°C 84% 5.5 mph WNW8.9 kmh WNW 17.2 mph27.7 kmh 29.74 in1007.1 mb 0.00 in0.0 mm 0.00 in0.0 mm 0.00 in0.0 mm
01:45 AM 57.9°F14.4°C 53.1°F11.7°C 84% 5.0 mph WNW8.0 kmh WNW 12.5 mph20.1 kmh 29.74 in1007.1 mb 0.00 in0.0 mm 0.00 in0.0 mm 0.00 in0.0 mm
02:00 AM 57.9°F14.4°C 52.8°F11.6°C 83% 5.7 mph WNW9.2 kmh WNW 17.2 mph27.7 kmh 29.74 in1007.1 mb 0.00 in0.0 mm 0.00 in0.0 mm 0.00 in0.0 mm
02:15 AM 57.9°F14.4°C 52.8°F11.6°C 83% 5.8 mph W9.3 kmh W 15.7 mph25.3 kmh 29.74 in1007.1 mb 0.00 in0.0 mm 0.00 in0.0 mm 0.00 in0.0 mm
02:30 AM 57.9°F14.4°C 52.8°F11.6°C 83% 5.5 mph W8.9 kmh W 13.6 mph21.9 kmh 29.74 in1007.1 mb 0.00 in0.0 mm 0.00 in0.0 mm 0.00 in0.0 mm
02:45 AM 57.9°F14.4°C 53.1°F11.7°C 84% 4.9 mph W7.9 kmh W 10.7 mph17.2 kmh 29.74 in1007.1 mb 0.00 in0.0 mm 0.00 in0.0 mm 0.00 in0.0 mm
03:00 AM 57.9°F14.4°C 53.1°F11.7°C 84% 5.4 mph WNW8.7 kmh WNW 11.8 mph19.0 kmh 29.74 in1007.1 mb 0.00 in0.0 mm 0.00 in0.0 mm 0.00 in0.0 mm
03:15 AM 57.9°F14.4°C 52.8°F11.6°C 83% 6.5 mph W10.5 kmh W 20.8 mph33.5 kmh 29.74 in1007.1 mb 0.00 in0.0 mm 0.00 in0.0 mm 0.00 in0.0 mm
03:30 AM 58.1°F14.5°C 53.0°F11.7°C 83% 5.2 mph W8.4 kmh W 17.9 mph28.8 kmh 29.74 in1007.1 mb 0.00 in0.0 mm 0.00 in0.0 mm 0.00 in0.0 mm
03:45 AM 57.9°F14.4°C 52.5°F11.4°C 82% 5.5 mph WNW8.9 kmh WNW 17.5 mph28.2 kmh 29.71 in1006.1 mb 0.00 in0.0 mm 0.00 in0.0 mm 0.00 in0.0 mm
04:00 AM 57.9°F14.4°C 52.5°F11.4°C 82% 5.6 mph W9.0 kmh W 14.0 mph22.5 kmh 29.74 in1007.1 mb 0.00 in0.0 mm 0.00 in0.0 mm 0.00 in0.0 mm
04:15 AM 57.9°F14.4°C 52.5°F11.4°C 82% 5.8 mph WNW9.3 kmh WNW 16.1 mph25.9 kmh 29.71 in1006.1 mb 0.00 in0.0 mm 0.00 in0.0 mm 0.00 in0.0 mm
04:40 AM 57.6°F14.2°C 52.1°F11.2°C 82% Calm Calm -- 29.74 in1007.1 mb 0.00 in0.0 mm 0.00 in0.0 mm 0.00 in0.0 mm
04:45 AM 57.4°F14.1°C 51.9°F11.1°C 82% 5.8 mph W9.3 kmh W 17.2 mph27.7 kmh 29.71 in1006.1 mb 0.00 in0.0 mm 0.00 in0.0 mm 0.00 in0.0 mm
05:00 AM 57.6°F14.2°C 52.4°F11.3°C 83% 6.0 mph W9.7 kmh W 19.7 mph31.7 kmh 29.71 in1006.1 mb 0.00 in0.0 mm 0.00 in0.0 mm 0.00 in0.0 mm
05:15 AM 57.7°F14.3°C 52.3°F11.3°C 82% 6.9 mph W11.1 kmh W 16.5 mph26.6 kmh 29.74 in1007.1 mb 0.00 in0.0 mm 0.00 in0.0 mm 0.00 in0.0 mm
05:30 AM 57.6°F14.2°C 52.1°F11.2°C 82% 5.4 mph W8.7 kmh W 15.4 mph24.8 kmh 29.74 in1007.1 mb 0.00 in0.0 mm 0.00 in0.0 mm 0.00 in0.0 mm
05:45 AM 57.7°F14.3°C 52.3°F11.3°C 82% 5.9 mph WNW9.5 kmh WNW 17.2 mph27.7 kmh 29.74 in1007.1 mb 0.00 in0.0 mm 0.00 in0.0 mm 0.00 in0.0 mm
06:00 AM 57.9°F14.4°C 52.5°F11.4°C 82% 5.5 mph W8.9 kmh W 13.6 mph21.9 kmh 29.74 in1007.1 mb 0.00 in0.0 mm 0.00 in0.0 mm 0.00 in0.0 mm
06:15 AM 58.3°F14.6°C 52.1°F11.2°C 80% 6.5 mph W10.5 kmh W 12.9 mph20.8 kmh 29.77 in1008.1 mb 0.00 in0.0 mm 0.00 in0.0 mm 0.00 in0.0 mm
06:30 AM 58.8°F14.9°C 52.7°F11.5°C 80% 4.8 mph WNW7.7 kmh WNW 15.7 mph25.3 kmh 29.74 in1007.1 mb 0.00 in0.0 mm 0.00 in0.0 mm 0.00 in0.0 mm
06:45 AM 59.5°F15.3°C 53.4°F11.9°C 80% 5.0 mph W8.0 kmh W 15.7 mph25.3 kmh 29.77 in1008.1 mb 0.00 in0.0 mm 0.00 in0.0 mm 0.00 in0.0 mm
07:00 AM 59.7°F15.4°C 52.8°F11.6°C 78% 6.7 mph W10.8 kmh W 19.7 mph31.7 kmh 29.80 in1009.1 mb 0.00 in0.0 mm 0.00 in0.0 mm 0.00 in0.0 mm
07:15 AM 60.3°F15.7°C 53.0°F11.7°C 77% 6.7 mph W10.8 kmh W 13.6 mph21.9 kmh 29.80 in1009.1 mb 0.00 in0.0 mm 0.00 in0.0 mm 0.00 in0.0 mm
07:30 AM 60.6°F15.9°C 53.0°F11.7°C 76% 7.6 mph W12.2 kmh W 16.1 mph25.9 kmh 29.80 in1009.1 mb 0.00 in0.0 mm 0.00 in0.0 mm 0.00 in0.0 mm
07:45 AM 60.8°F16.0°C 53.2°F11.8°C 76% 7.3 mph W11.7 kmh W 17.5 mph28.2 kmh 29.80 in1009.1 mb 0.00 in0.0 mm 0.00 in0.0 mm 0.00 in0.0 mm
08:00 AM 61.5°F16.4°C 53.9°F12.2°C 76% 6.7 mph WNW10.8 kmh WNW 15.4 mph24.8 kmh 29.80 in1009.1 mb 0.00 in0.0 mm 0.00 in0.0 mm 0.00 in0.0 mm
08:15 AM 62.1°F16.7°C 54.0°F12.2°C 75% 8.6 mph W13.8 kmh W 26.8 mph43.1 kmh 29.77 in1008.1 mb 0.00 in0.0 mm 0.00 in0.0 mm 0.00 in0.0 mm
08:30 AM 61.9°F16.6°C 53.9°F12.2°C 75% 6.4 mph WNW10.3 kmh WNW 16.8 mph27.0 kmh 29.80 in1009.1 mb 0.00 in0.0 mm 0.00 in0.0 mm 0.00 in0.0 mm
08:45 AM 62.4°F16.9°C 54.8°F12.7°C 76% 7.1 mph W11.4 kmh W 22.9 mph36.9 kmh 29.80 in1009.1 mb 0.00 in0.0 mm 0.00 in0.0 mm 0.00 in0.0 mm
09:00 AM 63.0°F17.2°C 54.2°F12.3°C 73% 7.6 mph WNW12.2 kmh WNW 20.4 mph32.8 kmh 29.80 in1009.1 mb 0.00 in0.0 mm 0.00 in0.0 mm 0.00 in0.0 mm
09:15 AM 63.7°F17.6°C 54.9°F12.7°C 73% 6.2 mph WNW10.0 kmh WNW 19.7 mph31.7 kmh 29.83 in1010.2 mb 0.00 in0.0 mm 0.00 in0.0 mm 0.00 in0.0 mm
09:30 AM 63.9°F17.7°C 53.9°F12.2°C 70% 8.7 mph W14.0 kmh W 19.7 mph31.7 kmh 29.83 in1010.2 mb 0.00 in0.0 mm 0.00 in0.0 mm 0.00 in0.0 mm
09:45 AM 64.6°F18.1°C 55.0°F12.8°C 71% 8.1 mph W13.0 kmh W 20.0 mph32.2 kmh 29.83 in1010.2 mb 0.00 in0.0 mm 0.00 in0.0 mm 0.00 in0.0 mm
10:00 AM 64.8°F18.2°C 55.1°F12.8°C 71% 7.5 mph W12.1 kmh W 16.5 mph26.6 kmh 29.83 in1010.2 mb 0.00 in0.0 mm 0.00 in0.0 mm 0.00 in0.0 mm
10:15 AM 65.8°F18.8°C 56.2°F13.4°C 71% 8.8 mph W14.2 kmh W 22.5 mph36.2 kmh 29.83 in1010.2 mb 0.00 in0.0 mm 0.00 in0.0 mm 0.00 in0.0 mm
10:30 AM 65.8°F18.8°C 55.4°F13.0°C 69% 7.9 mph W12.7 kmh W 24.7 mph39.8 kmh 29.86 in1011.2 mb 0.00 in0.0 mm 0.00 in0.0 mm 0.00 in0.0 mm
10:45 AM 66.0°F18.9°C 54.7°F12.6°C 67% 9.4 mph W15.1 kmh W 17.2 mph27.7 kmh 29.86 in1011.2 mb 0.00 in0.0 mm 0.00 in0.0 mm 0.00 in0.0 mm
11:00 AM 65.8°F18.8°C 54.2°F12.3°C 66% 7.9 mph WNW12.7 kmh WNW 19.0 mph30.6 kmh 29.86 in1011.2 mb 0.00 in0.0 mm 0.00 in0.0 mm 0.00 in0.0 mm
11:15 AM 66.2°F19.0°C 53.7°F12.1°C 64% 9.5 mph W15.3 kmh W 20.0 mph32.2 kmh 29.86 in1011.2 mb 0.00 in0.0 mm 0.00 in0.0 mm 0.00 in0.0 mm
11:30 AM 66.2°F19.0°C 53.2°F11.8°C 63% 8.9 mph W14.3 kmh W 27.9 mph44.9 kmh 29.83 in1010.2 mb 0.00 in0.0 mm 0.00 in0.0 mm 0.00 in0.0 mm
11:45 AM 66.0°F18.9°C 53.9°F12.2°C 65% 8.0 mph W12.9 kmh W 22.5 mph36.2 kmh 29.86 in1011.2 mb 0.00 in0.0 mm 0.00 in0.0 mm 0.00 in0.0 mm
12:00 PM 67.1°F19.5°C 54.5°F12.5°C 64% 6.8 mph W10.9 kmh W 20.4 mph32.8 kmh 29.86 in1011.2 mb 0.00 in0.0 mm 0.00 in0.0 mm 0.00 in0.0 mm
12:15 PM 66.9°F19.4°C 53.9°F12.2°C 63% 8.8 mph W14.2 kmh W 24.3 mph39.1 kmh 29.83 in1010.2 mb 0.00 in0.0 mm 0.00 in0.0 mm 0.00 in0.0 mm
12:31 PM 68.0°F20.0°C 55.4°F13.0°C 64% 8.1 mph W13.0 kmh W 22.9 mph36.9 kmh 29.86 in1011.2 mb 0.00 in0.0 mm 0.00 in0.0 mm 0.00 in0.0 mm
01:00 PM 66.9°F19.4°C 53.0°F11.7°C 61% 7.0 mph W11.3 kmh W 24.3 mph39.1 kmh 29.86 in1011.2 mb 0.00 in0.0 mm 0.00 in0.0 mm 0.00 in0.0 mm
01:15 PM 66.7°F19.3°C 52.4°F11.3°C 60% 7.4 mph WNW11.9 kmh WNW 21.1 mph34.0 kmh 29.89 in1012.2 mb 0.00 in0.0 mm 0.00 in0.0 mm 0.00 in0.0 mm
01:30 PM 67.3°F19.6°C 53.4°F11.9°C 61% 8.2 mph W13.2 kmh W 24.3 mph39.1 kmh 29.89 in1012.2 mb 0.00 in0.0 mm 0.00 in0.0 mm 0.00 in0.0 mm
01:45 PM 66.4°F19.1°C 51.6°F10.9°C 59% 7.8 mph W12.6 kmh W 26.1 mph42.0 kmh 29.89 in1012.2 mb 0.00 in0.0 mm 0.00 in0.0 mm 0.00 in0.0 mm
02:00 PM 66.7°F19.3°C 52.9°F11.6°C 61% 7.8 mph W12.6 kmh W 23.3 mph37.5 kmh 29.89 in1012.2 mb 0.00 in0.0 mm 0.00 in0.0 mm 0.00 in0.0 mm
02:15 PM 66.0°F18.9°C 52.6°F11.4°C 62% 6.2 mph W10.0 kmh W 20.8 mph33.5 kmh 29.92 in1013.2 mb 0.00 in0.0 mm 0.00 in0.0 mm 0.00 in0.0 mm
02:30 PM 67.1°F19.5°C 53.2°F11.8°C 61% 8.0 mph WNW12.9 kmh WNW 20.0 mph32.2 kmh 29.92 in1013.2 mb 0.00 in0.0 mm 0.00 in0.0 mm 0.00 in0.0 mm
02:45 PM 66.0°F18.9°C 52.2°F11.2°C 61% 8.6 mph W13.8 kmh W 19.7 mph31.7 kmh 29.95 in1014.2 mb 0.00 in0.0 mm 0.00 in0.0 mm 0.00 in0.0 mm
03:00 PM 64.6°F18.1°C 50.8°F10.4°C 61% 5.8 mph WNW9.3 kmh WNW 20.0 mph32.2 kmh 29.92 in1013.2 mb 0.00 in0.0 mm 0.00 in0.0 mm 0.00 in0.0 mm
03:15 PM 64.2°F17.9°C 51.4°F10.8°C 63% 5.1 mph WSW8.2 kmh WSW 8.6 mph13.8 kmh 29.92 in1013.2 mb 0.00 in0.0 mm 0.00 in0.0 mm 0.00 in0.0 mm
03:30 PM 64.0°F17.8°C 51.6°F10.9°C 64% 6.0 mph WNW9.7 kmh WNW 20.4 mph32.8 kmh 29.92 in1013.2 mb 0.00 in0.0 mm 0.00 in0.0 mm 0.00 in0.0 mm
03:45 PM 64.6°F18.1°C 52.5°F11.4°C 65% 6.8 mph W10.9 kmh W 14.0 mph22.5 kmh 29.92 in1013.2 mb 0.00 in0.0 mm 0.00 in0.0 mm 0.00 in0.0 mm
04:00 PM 65.8°F18.8°C 53.7°F12.1°C 65% 6.8 mph W10.9 kmh W 15.4 mph24.8 kmh 29.92 in1013.2 mb 0.00 in0.0 mm 0.00 in0.0 mm 0.00 in0.0 mm
04:15 PM 66.6°F19.2°C 53.6°F12.0°C 63% 6.3 mph W10.1 kmh W 12.5 mph20.1 kmh 29.92 in1013.2 mb 0.00 in0.0 mm 0.00 in0.0 mm 0.00 in0.0 mm
04:30 PM 66.2°F19.0°C 51.9°F11.1°C 60% 6.6 mph WNW10.6 kmh WNW 17.5 mph28.2 kmh 29.92 in1013.2 mb 0.00 in0.0 mm 0.00 in0.0 mm 0.00 in0.0 mm
04:45 PM 65.8°F18.8°C 51.6°F10.9°C 60% 6.8 mph W10.9 kmh W 23.3 mph37.5 kmh 29.92 in1013.2 mb 0.00 in0.0 mm 0.00 in0.0 mm 0.00 in0.0 mm
05:00 PM 64.9°F18.3°C 51.2°F10.7°C 61% 7.6 mph W12.2 kmh W 19.7 mph31.7 kmh 29.92 in1013.2 mb 0.00 in0.0 mm 0.00 in0.0 mm 0.00 in0.0 mm
05:15 PM 64.9°F18.3°C 51.6°F10.9°C 62% 5.5 mph WNW8.9 kmh WNW 11.5 mph18.5 kmh 29.95 in1014.2 mb 0.00 in0.0 mm 0.00 in0.0 mm 0.00 in0.0 mm
05:30 PM 64.6°F18.1°C 51.3°F10.7°C 62% 6.7 mph W10.8 kmh W 15.0 mph24.1 kmh 29.95 in1014.2 mb 0.00 in0.0 mm 0.00 in0.0 mm 0.00 in0.0 mm
05:45 PM 63.9°F17.7°C 50.6°F10.3°C 62% 5.1 mph WNW8.2 kmh WNW 8.9 mph14.3 kmh 29.95 in1014.2 mb 0.00 in0.0 mm 0.00 in0.0 mm 0.00 in0.0 mm
06:00 PM 63.1°F17.3°C 49.9°F9.9°C 62% 5.8 mph WNW9.3 kmh WNW 16.8 mph27.0 kmh 29.95 in1014.2 mb 0.00 in0.0 mm 0.00 in0.0 mm 0.00 in0.0 mm
06:15 PM 63.0°F17.2°C 50.2°F10.1°C 63% 5.3 mph W8.5 kmh W 17.2 mph27.7 kmh 29.95 in1014.2 mb 0.00 in0.0 mm 0.00 in0.0 mm 0.00 in0.0 mm
06:30 PM 62.6°F17.0°C 49.4°F9.7°C 62% 7.9 mph W12.7 kmh W 20.8 mph33.5 kmh 29.95 in1014.2 mb 0.00 in0.0 mm 0.00 in0.0 mm 0.00 in0.0 mm
06:45 PM 62.2°F16.8°C 49.9°F9.9°C 64% 5.8 mph WNW9.3 kmh WNW 12.9 mph20.8 kmh 29.95 in1014.2 mb 0.00 in0.0 mm 0.00 in0.0 mm 0.00 in0.0 mm
07:00 PM 61.5°F16.4°C 49.6°F9.8°C 65% 7.1 mph WNW11.4 kmh WNW 19.3 mph31.1 kmh 29.95 in1014.2 mb 0.00 in0.0 mm 0.00 in0.0 mm 0.00 in0.0 mm
07:15 PM 61.3°F16.3°C 50.3°F10.2°C 67% 4.0 mph W6.4 kmh W 16.8 mph27.0 kmh 29.95 in1014.2 mb 0.00 in0.0 mm 0.00 in0.0 mm 0.00 in0.0 mm
07:30 PM 61.2°F16.2°C 50.5°F10.3°C 68% 5.6 mph WNW9.0 kmh WNW 19.0 mph30.6 kmh 29.95 in1014.2 mb 0.00 in0.0 mm 0.00 in0.0 mm 0.00 in0.0 mm
07:45 PM 60.3°F15.7°C 51.2°F10.7°C 72% 1.9 mph W3.1 kmh W 5.7 mph9.2 kmh 29.95 in1014.2 mb 0.00 in0.0 mm 0.00 in0.0 mm 0.00 in0.0 mm
08:00 PM 59.4°F15.2°C 50.7°F10.4°C 73% 3.8 mph W6.1 kmh W 10.4 mph16.7 kmh 29.98 in1015.2 mb 0.00 in0.0 mm 0.00 in0.0 mm 0.00 in0.0 mm
08:15 PM 59.0°F15.0°C 50.0°F10.0°C 72% 5.1 mph WNW8.2 kmh WNW 12.5 mph20.1 kmh 29.98 in1015.2 mb 0.00 in0.0 mm 0.00 in0.0 mm 0.00 in0.0 mm
08:31 PM 58.8°F14.9°C 50.2°F10.1°C 73% 3.1 mph W5.0 kmh W 6.4 mph10.3 kmh 29.98 in1015.2 mb 0.00 in0.0 mm 0.00 in0.0 mm 0.00 in0.0 mm
08:45 PM 58.8°F14.9°C 49.8°F9.9°C 72% 10.0 mph WNW16.1 kmh WNW 15.7 mph25.3 kmh 29.98 in1015.2 mb 0.00 in0.0 mm 0.00 in0.0 mm 0.00 in0.0 mm
09:00 PM 58.8°F14.9°C 49.4°F9.7°C 71% 5.8 mph WNW9.3 kmh WNW 18.3 mph29.5 kmh 29.98 in1015.2 mb 0.00 in0.0 mm 0.00 in0.0 mm 0.00 in0.0 mm
09:15 PM 58.6°F14.8°C 48.9°F9.4°C 70% 5.7 mph W9.2 kmh W 14.0 mph22.5 kmh 29.98 in1015.2 mb 0.00 in0.0 mm 0.00 in0.0 mm 0.00 in0.0 mm
09:30 PM 58.8°F14.9°C 48.7°F9.3°C 69% 4.2 mph W6.8 kmh W 12.5 mph20.1 kmh 29.98 in1015.2 mb 0.00 in0.0 mm 0.00 in0.0 mm 0.00 in0.0 mm
09:45 PM 58.6°F14.8°C 49.6°F9.8°C 72% 3.8 mph WNW6.1 kmh WNW 14.0 mph22.5 kmh 29.95 in1014.2 mb 0.00 in0.0 mm 0.00 in0.0 mm 0.00 in0.0 mm
10:00 PM 58.3°F14.6°C 49.3°F9.6°C 72% 4.7 mph WNW7.6 kmh WNW 7.9 mph12.7 kmh 29.98 in1015.2 mb 0.00 in0.0 mm 0.00 in0.0 mm 0.00 in0.0 mm
10:15 PM 58.3°F14.6°C 48.5°F9.2°C 70% 7.9 mph NW12.7 kmh NW 11.8 mph19.0 kmh 29.98 in1015.2 mb 0.00 in0.0 mm 0.00 in0.0 mm 0.00 in0.0 mm
10:30 PM 57.9°F14.4°C 48.2°F9.0°C 70% 3.6 mph WSW5.8 kmh WSW 6.4 mph10.3 kmh 29.98 in1015.2 mb 0.00 in0.0 mm 0.00 in0.0 mm 0.00 in0.0 mm
10:45 PM 57.7°F14.3°C 48.0°F8.9°C 70% 3.8 mph W6.1 kmh W 4.7 mph7.6 kmh 29.98 in1015.2 mb 0.00 in0.0 mm 0.00 in0.0 mm 0.00 in0.0 mm
11:00 PM 57.4°F14.1°C 48.1°F8.9°C 71% 6.1 mph NW9.8 kmh NW 7.5 mph12.1 kmh 29.98 in1015.2 mb 0.00 in0.0 mm 0.00 in0.0 mm 0.00 in0.0 mm
11:15 PM 57.2°F14.0°C 48.3°F9.1°C 72% 3.3 mph S5.3 kmh S 6.1 mph9.8 kmh 29.98 in1015.2 mb 0.00 in0.0 mm 0.00 in0.0 mm 0.00 in0.0 mm
11:30 PM 57.2°F14.0°C 48.3°F9.1°C 72% 6.6 mph W10.6 kmh W 8.9 mph14.3 kmh 30.01 in1016.3 mb 0.00 in0.0 mm 0.00 in0.0 mm 0.00 in0.0 mm
11:45 PM 57.2°F14.0°C 48.6°F9.2°C 73% 4.7 mph NW7.6 kmh NW 7.9 mph12.7 kmh 30.01 in1016.3 mb 0.00 in0.0 mm 0.00 in0.0 mm 0.00 in0.0 mm